Elbing, Kansas
Current Conditions -  °F | °C
As of 8:55 PM on Wednesday 26 Nov 2014 (Local Time) from KEWK Reporting Station
Clear Clear  
Wind Chill: 22°   Ceiling: Unl
Heat Index: 30°   Visibility: 10mi
Dew Point: 18°   Wind: 9mph
Humidity: 60%   Direction: 340°NNW
Pressure: 30.41"   Gusts: NA
Location:  38.05°N, 97.13°W
Report Text: KEWK 270255Z AUTO 34008KT 10SM CLR M01/M08 A3041 RMK AO1 52024
Loading
Personal Weather Stations






























Interactive Weather Map New forecast layout! Learn more

10-Day Weather Forecast

Advertisements
Track Severe Weather on mobile